Time;durP1;ratioP1;P1;durP2;ratioP2;P2;SDS_P1;SDS_P2;PMS_P1;PMS_P2;Temp;Humidity;BMP_temperature;BMP_pressure;BME280_temperature;BME280_humidity;BME280_pressure;Samples;Min_cycle;Max_cycle;Signal;HPM_P1;HPM_P2
2023/07/05 00:02:13;;;;;;;6.63;5.93;;;20.60;99.90;;;;;;6257636;28;20253;-61
2023/07/05 00:05:16;;;;;;;6.97;6.27;;;20.50;99.90;;;;;;6257702;28;20236;-61
2023/07/05 00:08:22;;;;;;;8.80;6.90;;;20.50;99.90;;;;;;6257671;28;20329;-61
2023/07/05 00:11:26;;;;;;;7.07;6.37;;;20.40;99.90;;;;;;6257642;28;20660;-61
2023/07/05 00:14:31;;;;;;;8.57;6.70;;;20.40;99.90;;;;;;6257417;28;20232;-62
2023/07/05 00:17:36;;;;;;;8.20;7.40;;;20.40;99.90;;;;;;6257050;28;20231;-61
2023/07/05 00:20:42;;;;;;;7.37;6.63;;;20.40;99.90;;;;;;6257362;28;20232;-61
2023/07/05 00:23:46;;;;;;;8.53;7.47;;;20.40;99.90;;;;;;6257685;28;20232;-61
2023/07/05 00:26:50;;;;;;;9.13;6.57;;;20.40;99.90;;;;;;6257340;28;20232;-61
2023/07/05 00:29:55;;;;;;;7.50;6.50;;;20.30;99.90;;;;;;6257434;28;20238;-61
2023/07/05 00:33:00;;;;;;;11.23;8.97;;;20.30;99.90;;;;;;6257420;28;20708;-61
2023/07/05 00:36:04;;;;;;;9.83;6.40;;;20.20;99.90;;;;;;6257372;28;20514;-61
2023/07/05 00:39:07;;;;;;;8.77;7.87;;;20.10;99.90;;;;;;6256740;28;20219;-61
2023/07/05 00:42:13;;;;;;;8.80;7.70;;;20.10;99.90;;;;;;6257523;28;20410;-61
2023/07/05 00:45:45;;;;;;;8.33;7.00;;;20.10;99.90;;;;;;6240247;28;20370;-61
2023/07/05 00:48:55;;;;;;;9.80;7.30;;;20.20;99.90;;;;;;6256235;28;20260;-61
2023/07/05 00:52:02;;;;;;;9.57;7.00;;;20.00;99.90;;;;;;6259191;28;20228;-61
2023/07/05 00:55:07;;;;;;;7.73;6.93;;;20.10;99.90;;;;;;6254600;28;20566;-61
2023/07/05 00:58:11;;;;;;;8.93;6.80;;;20.20;99.90;;;;;;6254834;28;20243;-61
2023/07/05 01:01:15;;;;;;;10.40;7.10;;;20.20;99.90;;;;;;6253794;28;20235;-61
2023/07/05 01:04:20;;;;;;;9.50;7.33;;;20.20;99.90;;;;;;6235785;28;20226;-61
2023/07/05 01:07:23;;;;;;;8.60;7.27;;;20.20;99.90;;;;;;6252071;28;20311;-61
2023/07/05 01:10:28;;;;;;;10.80;7.17;;;20.20;99.90;;;;;;6251338;28;20383;-61
2023/07/05 01:13:36;;;;;;;9.53;7.30;;;20.00;99.90;;;;;;6251967;28;20537;-61
2023/07/05 01:16:55;;;;;;;8.90;8.00;;;20.00;99.90;;;;;;6255795;28;20224;-61
2023/07/05 01:20:13;;;;;;;7.27;6.57;;;20.10;99.90;;;;;;6255662;28;20246;-61
2023/07/05 01:23:41;;;;;;;9.13;7.27;;;20.10;99.90;;;;;;6254271;28;20330;-61
2023/07/05 01:27:24;;;;;;;8.67;7.50;;;20.10;99.90;;;;;;6254072;28;20227;-61
2023/07/05 01:30:56;;;;;;;7.40;6.60;;;20.10;99.90;;;;;;6221689;28;20304;-61
2023/07/05 01:34:08;;;;;;;9.50;7.30;;;20.00;99.90;;;;;;6258312;28;20248;-61
2023/07/05 01:37:28;;;;;;;6.40;5.80;;;20.00;99.90;;;;;;6277447;28;20238;-61
2023/07/05 01:40:52;;;;;;;10.80;7.87;;;20.00;99.90;;;;;;6278017;28;20550;-61
2023/07/05 01:43:58;;;;;;;9.40;5.93;;;20.10;99.90;;;;;;6267606;28;20239;-61
2023/07/05 01:47:10;;;;;;;7.60;6.53;;;20.10;99.90;;;;;;6276733;28;20592;-61
2023/07/05 01:50:21;;;;;;;9.90;7.33;;;20.00;99.90;;;;;;6276710;28;20236;-61
2023/07/05 01:53:35;;;;;;;6.37;5.70;;;19.90;99.90;;;;;;6276281;28;20739;-62
2023/07/05 01:56:58;;;;;;;6.90;6.20;;;19.90;99.90;;;;;;6275755;28;20246;-63
2023/07/05 02:00:07;;;;;;;6.17;5.57;;;19.70;99.90;;;;;;6276999;28;20277;-63
2023/07/05 02:03:14;;;;;;;11.83;6.70;;;19.60;99.90;;;;;;6275426;28;20556;-63
2023/07/05 02:06:20;;;;;;;7.97;7.23;;;19.50;99.90;;;;;;6276253;28;20277;-63
2023/07/05 02:09:24;;;;;;;7.63;6.80;;;19.40;99.90;;;;;;6276233;28;20224;-63
2023/07/05 02:12:29;;;;;;;7.10;6.40;;;19.40;99.90;;;;;;6259254;28;20547;-63
2023/07/05 02:15:32;;;;;;;9.00;7.50;;;19.30;99.90;;;;;;6275588;28;20279;-62
2023/07/05 02:18:39;;;;;;;8.17;7.37;;;19.30;99.90;;;;;;6276819;28;20261;-62
2023/07/05 02:21:44;;;;;;;13.93;7.93;;;19.10;99.90;;;;;;6277940;28;20338;-62
2023/07/05 02:24:51;;;;;;;10.37;8.00;;;19.10;99.90;;;;;;6276913;28;20246;-62
2023/07/05 02:27:55;;;;;;;9.23;6.87;;;19.00;99.90;;;;;;6275795;28;20327;-62
2023/07/05 02:30:58;;;;;;;7.27;6.57;;;19.00;99.90;;;;;;6276349;28;20281;-62
2023/07/05 02:34:01;;;;;;;10.20;7.40;;;18.90;99.90;;;;;;6267419;28;20244;-62
2023/07/05 02:37:06;;;;;;;8.70;6.63;;;18.90;99.90;;;;;;6233836;28;20236;-62
2023/07/05 02:40:10;;;;;;;8.37;6.83;;;18.90;99.90;;;;;;6251714;28;20232;-62
2023/07/05 02:43:13;;;;;;;7.70;6.43;;;18.90;99.90;;;;;;6251224;28;20224;-63
2023/07/05 02:46:16;;;;;;;8.20;6.80;;;18.80;99.90;;;;;;6246630;28;20232;-63
2023/07/05 02:49:20;;;;;;;9.73;6.43;;;18.80;99.90;;;;;;6250490;28;20236;-63
2023/07/05 02:52:24;;;;;;;8.40;6.23;;;18.70;99.90;;;;;;6250879;28;20235;-63
2023/07/05 02:55:31;;;;;;;8.57;7.20;;;18.70;99.90;;;;;;6250623;28;20779;-63
2023/07/05 02:58:34;;;;;;;7.20;6.50;;;18.80;99.90;;;;;;6250656;28;20235;-63
2023/07/05 03:01:37;;;;;;;7.60;6.60;;;18.90;99.90;;;;;;6250840;28;20386;-63
2023/07/05 03:04:43;;;;;;;7.17;6.10;;;19.00;99.90;;;;;;6250365;28;20235;-63
2023/07/05 03:07:47;;;;;;;6.77;6.17;;;19.00;99.90;;;;;;6249871;28;20738;-63
2023/07/05 03:10:54;;;;;;;6.77;6.07;;;19.00;99.90;;;;;;6237099;28;20228;-63
2023/07/05 03:13:58;;;;;;;7.00;6.33;;;19.10;99.90;;;;;;6253544;28;20235;-62
2023/07/05 03:17:01;;;;;;;8.57;5.20;;;19.10;99.90;;;;;;6250342;28;20232;-62
2023/07/05 03:20:05;;;;;;;6.57;5.87;;;19.20;99.90;;;;;;6249706;28;20318;-62
2023/07/05 03:23:10;;;;;;;8.63;6.40;;;19.20;99.90;;;;;;6250171;28;20311;-62
2023/07/05 03:26:14;;;;;;;6.13;5.57;;;19.20;99.90;;;;;;6232777;28;20242;-62
2023/07/05 03:29:17;;;;;;;6.30;5.67;;;19.20;99.90;;;;;;6250086;28;20236;-62
2023/07/05 03:32:20;;;;;;;8.90;6.20;;;19.20;99.90;;;;;;6250059;28;20670;-63
2023/07/05 03:35:24;;;;;;;7.00;5.60;;;19.10;99.90;;;;;;6249580;28;20616;-63
2023/07/05 03:38:30;;;;;;;6.10;5.50;;;19.10;99.90;;;;;;6249747;28;20454;-63
2023/07/05 03:41:36;;;;;;;6.83;5.63;;;19.00;99.90;;;;;;6249917;28;20242;-63
2023/07/05 03:44:39;;;;;;;6.43;5.17;;;19.00;99.90;;;;;;6250057;28;20370;-63
2023/07/05 03:47:43;;;;;;;6.10;5.50;;;19.10;99.90;;;;;;6249837;28;20242;-63
2023/07/05 03:50:49;;;;;;;7.80;5.33;;;19.00;99.90;;;;;;6250674;28;20315;-63
2023/07/05 03:53:56;;;;;;;5.97;5.37;;;19.00;99.90;;;;;;6249482;28;20238;-63
2023/07/05 03:56:59;;;;;;;5.83;5.23;;;19.10;99.90;;;;;;6249700;28;20278;-62
2023/07/05 04:00:07;;;;;;;6.10;5.00;;;19.00;99.90;;;;;;6250243;28;20200;-62
2023/07/05 04:03:17;;;;;;;6.43;5.50;;;19.00;99.90;;;;;;6249375;28;20572;-62
2023/07/05 04:06:22;;;;;;;8.53;5.30;;;19.00;99.90;;;;;;6250006;28;20294;-62
2023/07/05 04:09:27;;;;;;;4.77;4.30;;;19.10;99.90;;;;;;6249797;28;20551;-62
2023/07/05 04:12:31;;;;;;;5.77;5.27;;;19.10;99.90;;;;;;6250014;28;20239;-62
2023/07/05 04:15:34;;;;;;;5.20;4.33;;;19.10;99.90;;;;;;6250022;28;20247;-63
2023/07/05 04:18:39;;;;;;;5.00;4.60;;;19.10;99.90;;;;;;6249636;28;20243;-63
2023/07/05 04:21:42;;;;;;;5.80;4.93;;;19.20;99.90;;;;;;6249547;28;20343;-63
2023/07/05 04:24:49;;;;;;;6.80;5.67;;;19.30;99.90;;;;;;6249703;28;20224;-63
2023/07/05 04:27:52;;;;;;;5.43;3.97;;;19.40;99.90;;;;;;6249215;28;20665;-63
2023/07/05 04:30:56;;;;;;;8.23;4.57;;;19.50;99.90;;;;;;6251136;28;20251;-63
2023/07/05 04:34:01;;;;;;;5.40;4.07;;;19.60;99.90;;;;;;6253854;28;20239;-62
2023/07/05 04:37:05;;;;;;;6.77;5.00;;;19.70;99.90;;;;;;6236741;28;20224;-62
2023/07/05 04:40:12;;;;;;;5.40;3.73;;;19.80;99.90;;;;;;6236750;28;20311;-62
2023/07/05 04:43:16;;;;;;;4.53;4.13;;;20.00;99.90;;;;;;6236538;28;20224;-62
2023/07/05 04:46:20;;;;;;;4.83;4.43;;;20.10;99.90;;;;;;6254066;28;20264;-63
2023/07/05 04:49:24;;;;;;;4.37;3.97;;;20.20;99.90;;;;;;6253728;28;20243;-63
2023/07/05 04:52:28;;;;;;;8.00;4.00;;;20.30;99.90;;;;;;6253524;28;20231;-63
2023/07/05 04:55:35;;;;;;;5.97;4.53;;;20.40;99.90;;;;;;6244495;28;20641;-62
2023/07/05 04:58:39;;;;;;;5.47;4.97;;;20.60;99.90;;;;;;6253307;28;20294;-63
2023/07/05 05:01:42;;;;;;;7.10;6.00;;;20.70;99.90;;;;;;6253379;28;20228;-63
2023/07/05 05:04:48;;;;;;;10.17;5.70;;;20.70;99.90;;;;;;6253311;28;20754;-63
2023/07/05 05:07:51;;;;;;;12.00;5.27;;;20.70;99.90;;;;;;6252838;28;20247;-63
2023/07/05 05:10:57;;;;;;;8.00;5.70;;;20.80;99.90;;;;;;6253110;28;20727;-63
2023/07/05 05:14:00;;;;;;;7.77;5.63;;;20.80;99.90;;;;;;6252914;28;20235;-64
2023/07/05 05:17:07;;;;;;;5.80;5.00;;;20.90;99.90;;;;;;6252936;28;20238;-63
2023/07/05 05:20:14;;;;;;;6.23;4.50;;;21.00;99.90;;;;;;6252849;28;20247;-63
2023/07/05 05:23:18;;;;;;;6.53;5.63;;;21.00;99.90;;;;;;6253118;28;20236;-63
2023/07/05 05:26:22;;;;;;;8.80;6.00;;;21.20;99.90;;;;;;6252520;28;20297;-63
2023/07/05 05:29:25;;;;;;;7.13;5.43;;;21.30;99.90;;;;;;6252360;28;20240;-63
2023/07/05 05:32:29;;;;;;;13.93;5.40;;;21.40;99.90;;;;;;6252822;28;20247;-64
2023/07/05 05:35:34;;;;;;;5.93;4.70;;;21.40;99.90;;;;;;6252424;28;20240;-64
2023/07/05 05:38:41;;;;;;;5.57;4.50;;;21.40;99.90;;;;;;6252219;28;20239;-63
2023/07/05 05:41:45;;;;;;;5.80;5.00;;;21.40;99.90;;;;;;6251777;28;20224;-63
2023/07/05 05:44:49;;;;;;;6.43;4.73;;;21.60;99.90;;;;;;6252252;28;20238;-62
2023/07/05 05:47:52;;;;;;;7.73;4.60;;;21.80;99.90;;;;;;6252140;28;20267;-63
2023/07/05 05:50:56;;;;;;;5.00;4.10;;;21.90;99.90;;;;;;6252197;28;20228;-63
2023/07/05 05:53:59;;;;;;;7.03;5.20;;;22.00;99.90;;;;;;6235449;28;20216;-62
2023/07/05 05:57:04;;;;;;;6.30;5.07;;;22.20;99.90;;;;;;6248020;28;20263;-62
2023/07/05 06:00:10;;;;;;;5.33;4.83;;;22.30;99.90;;;;;;6252433;28;20203;-62
2023/07/05 06:03:17;;;;;;;5.60;4.67;;;22.40;99.90;;;;;;6252398;28;20205;-62
2023/07/05 06:06:22;;;;;;;5.20;4.30;;;22.50;99.90;;;;;;6251495;28;20236;-62
2023/07/05 06:09:25;;;;;;;5.07;4.57;;;22.70;99.90;;;;;;6234268;28;20247;-62
2023/07/05 06:12:29;;;;;;;5.13;4.63;;;22.90;99.90;;;;;;6251474;28;20250;-62
2023/07/05 06:15:35;;;;;;;5.10;4.27;;;23.20;99.90;;;;;;6251956;28;20228;-62
2023/07/05 06:18:42;;;;;;;5.77;4.10;;;23.60;99.90;;;;;;6252093;28;20232;-63
2023/07/05 06:21:49;;;;;;;4.63;4.23;;;24.10;99.90;;;;;;6251651;28;20624;-62
2023/07/05 06:24:52;;;;;;;3.80;3.50;;;24.90;99.90;;;;;;6253369;28;20236;-63
2023/07/05 06:27:56;;;;;;;4.80;4.30;;;25.40;99.70;;;;;;6253574;28;20667;-62
2023/07/05 06:31:06;;;;;;;6.17;4.57;;;26.20;98.20;;;;;;6251480;28;20228;-62
2023/07/05 06:34:09;;;;;;;8.67;4.80;;;26.90;96.80;;;;;;6251250;28;20252;-62
2023/07/05 06:37:12;;;;;;;5.00;4.50;;;27.20;95.10;;;;;;6250950;28;20242;-62
2023/07/05 06:40:16;;;;;;;5.87;3.97;;;27.10;94.50;;;;;;6250958;28;20680;-62
2023/07/05 06:43:24;;;;;;;5.37;4.37;;;27.40;93.90;;;;;;6251340;28;20687;-63
2023/07/05 06:46:28;;;;;;;4.37;3.90;;;28.30;92.90;;;;;;6250688;28;20220;-63
2023/07/05 06:49:35;;;;;;;5.40;4.40;;;28.80;91.70;;;;;;6250704;28;20242;-63
2023/07/05 06:52:38;;;;;;;4.77;4.27;;;29.50;90.00;;;;;;6248902;28;20223;-63
2023/07/05 06:55:43;;;;;;;5.63;4.63;;;30.00;88.10;;;;;;6250483;28;20370;-63
2023/07/05 06:58:49;;;;;;;7.60;4.47;;;30.50;83.90;;;;;;6250762;28;20261;-63
2023/07/05 07:01:55;;;;;;;4.88;3.92;;;31.10;81.20;;;;;;6250346;28;20242;-63
2023/07/05 07:05:01;;;;;;;4.15;3.85;;;31.10;77.90;;;;;;6240713;28;20577;-62
2023/07/05 07:08:05;;;;;;;5.93;5.43;;;31.20;77.30;;;;;;6250293;28;20242;-62
2023/07/05 07:11:12;;;;;;;6.97;5.18;;;31.60;75.80;;;;;;6250017;28;20640;-62
2023/07/05 07:14:17;;;;;;;5.32;4.82;;;32.50;71.60;;;;;;6250374;28;20313;-62
2023/07/05 07:17:20;;;;;;;5.55;5.00;;;33.20;68.10;;;;;;6250063;28;20228;-62
2023/07/05 07:20:25;;;;;;;4.85;4.28;;;33.60;65.00;;;;;;6249983;28;20554;-63
2023/07/05 07:23:29;;;;;;;5.55;4.55;;;33.90;62.60;;;;;;6250420;28;20227;-63
2023/07/05 07:26:38;;;;;;;4.35;3.95;;;34.50;59.90;;;;;;6248412;28;20683;-63
2023/07/05 07:29:45;;;;;;;4.45;4.03;;;35.10;57.80;;;;;;6250055;28;20227;-63
2023/07/05 07:32:49;;;;;;;5.65;4.40;;;35.60;56.10;;;;;;6249631;28;20310;-63
2023/07/05 07:35:55;;;;;;;4.88;4.22;;;35.00;54.30;;;;;;6272773;28;20238;-63
2023/07/05 07:39:02;;;;;;;5.50;5.00;;;35.30;53.30;;;;;;6274187;28;20377;-64
2023/07/05 07:42:06;;;;;;;5.28;4.78;;;36.10;52.90;;;;;;6274741;28;20191;-64
2023/07/05 07:45:13;;;;;;;4.78;4.38;;;36.80;50.20;;;;;;6257280;28;20635;-63
2023/07/05 07:48:17;;;;;;;4.45;4.05;;;37.00;49.40;;;;;;6274273;28;20227;-63
2023/07/05 07:51:26;;;;;;;5.18;4.40;;;37.00;48.80;;;;;;6274123;28;20230;-63
2023/07/05 07:54:43;;;;;;;5.60;4.93;;;36.60;48.40;;;;;;6274624;28;20234;-63
2023/07/05 07:57:47;;;;;;;4.32;4.03;;;36.10;48.80;;;;;;6274549;28;20242;-63
2023/07/05 08:00:52;;;;;;;5.30;4.80;;;35.80;48.90;;;;;;6274345;28;20662;-63
2023/07/05 08:03:57;;;;;;;5.15;4.75;;;34.60;48.30;;;;;;6274567;28;20541;-63
2023/07/05 08:07:02;;;;;;;6.15;4.00;;;32.80;50.90;;;;;;6269025;28;20312;-62
2023/07/05 08:10:09;;;;;;;4.20;3.85;;;31.70;53.60;;;;;;6279146;28;20235;-62
2023/07/05 08:13:13;;;;;;;4.72;4.30;;;31.80;54.50;;;;;;6279472;28;20281;-64
2023/07/05 08:16:19;;;;;;;4.50;4.10;;;31.50;55.30;;;;;;6279387;28;20316;-63
2023/07/05 08:19:22;;;;;;;5.47;3.92;;;31.20;55.90;;;;;;6278934;28;20312;-63
2023/07/05 08:22:26;;;;;;;4.50;4.10;;;31.40;56.70;;;;;;6280010;28;20268;-63
2023/07/05 08:25:29;;;;;;;4.00;3.70;;;31.60;56.90;;;;;;6261823;28;20955;-63
2023/07/05 08:28:32;;;;;;;4.18;3.78;;;31.50;56.10;;;;;;6279046;28;20690;-63
2023/07/05 08:31:37;;;;;;;6.15;3.50;;;31.20;55.80;;;;;;6261758;28;20605;-64
2023/07/05 08:34:50;;;;;;;4.75;4.00;;;31.00;55.40;;;;;;6279277;28;20250;-63
2023/07/05 08:37:54;;;;;;;4.68;4.28;;;30.60;57.70;;;;;;6279182;28;20251;-64
2023/07/05 08:41:02;;;;;;;5.40;4.00;;;30.30;58.70;;;;;;6278892;28;20226;-63
2023/07/05 08:44:18;;;;;;;5.47;5.07;;;30.10;60.50;;;;;;6277617;28;20650;-63
2023/07/05 08:47:29;;;;;;;4.63;4.03;;;30.50;61.00;;;;;;6278824;28;20861;-63
2023/07/05 08:50:36;;;;;;;3.95;3.50;;;30.80;59.40;;;;;;6279262;28;20309;-63
2023/07/05 08:54:04;;;;;;;4.60;3.80;;;31.10;59.30;;;;;;6278342;28;20227;-63
2023/07/05 08:57:19;;;;;;;4.38;3.97;;;31.40;58.00;;;;;;6278263;28;20671;-63
2023/07/05 09:00:27;;;;;;;4.30;3.35;;;30.90;58.50;;;;;;6278342;28;20554;-63
2023/07/05 09:03:32;;;;;;;4.18;3.53;;;30.40;59.30;;;;;;6278520;28;20237;-63
2023/07/05 09:06:44;;;;;;;3.92;3.53;;;29.80;61.30;;;;;;6278592;28;20242;-63
2023/07/05 09:09:55;;;;;;;5.20;3.63;;;29.40;63.10;;;;;;6273460;28;20241;-63
2023/07/05 09:13:10;;;;;;;4.80;4.40;;;29.10;64.90;;;;;;6277348;28;20309;-64
2023/07/05 09:16:22;;;;;;;4.20;3.80;;;28.70;66.10;;;;;;6276915;28;20648;-63
2023/07/05 09:19:40;;;;;;;4.23;3.83;;;28.50;65.90;;;;;;6278129;28;20692;-63
2023/07/05 09:22:47;;;;;;;4.57;3.73;;;28.20;67.10;;;;;;6278086;28;20223;-63
2023/07/05 09:25:57;;;;;;;5.27;3.50;;;28.10;67.70;;;;;;6277643;28;20241;-63
2023/07/05 09:29:08;;;;;;;4.53;3.57;;;28.10;68.90;;;;;;6277311;28;20527;-64
2023/07/05 09:32:15;;;;;;;4.17;3.40;;;28.40;68.20;;;;;;6277673;28;20269;-64
2023/07/05 09:35:24;;;;;;;3.47;3.17;;;28.40;66.50;;;;;;6277226;28;20239;-64
2023/07/05 09:38:35;;;;;;;4.07;3.70;;;28.80;66.90;;;;;;6277429;28;20617;-63
2023/07/05 09:41:44;;;;;;;3.40;2.63;;;28.70;64.40;;;;;;6277602;28;20250;-63
2023/07/05 09:44:47;;;;;;;3.93;3.63;;;28.50;65.00;;;;;;6277471;28;20262;-63
2023/07/05 09:47:56;;;;;;;4.87;3.17;;;28.50;65.00;;;;;;6277246;28;20241;-63
2023/07/05 09:51:03;;;;;;;5.00;3.23;;;28.50;65.30;;;;;;6276902;28;20223;-63
2023/07/05 09:54:09;;;;;;;4.10;3.70;;;28.40;66.50;;;;;;6276986;28;20188;-63
2023/07/05 09:57:24;;;;;;;4.10;3.30;;;28.40;67.50;;;;;;6276901;28;20223;-63
2023/07/05 10:00:34;;;;;;;4.17;3.13;;;28.50;66.50;;;;;;6275845;28;20298;-63
2023/07/05 10:03:39;;;;;;;4.00;3.50;;;28.60;68.20;;;;;;6277095;28;20233;-63
2023/07/05 10:06:50;;;;;;;5.10;3.87;;;28.90;67.00;;;;;;6276358;28;20230;-63
2023/07/05 10:10:03;;;;;;;4.80;4.30;;;28.60;67.90;;;;;;6276235;28;20231;-63
2023/07/05 10:13:14;;;;;;;3.80;3.50;;;28.40;67.80;;;;;;6276802;28;20858;-63
2023/07/05 10:16:17;;;;;;;3.80;3.33;;;28.10;67.70;;;;;;6271330;28;20226;-63
2023/07/05 10:19:22;;;;;;;5.60;3.90;;;28.20;65.70;;;;;;6276268;28;20458;-64
2023/07/05 10:22:33;;;;;;;4.17;3.53;;;28.30;64.40;;;;;;6276273;28;20686;-63
2023/07/05 10:25:43;;;;;;;4.07;3.67;;;28.50;65.30;;;;;;6276255;28;20274;-63
2023/07/05 10:28:46;;;;;;;3.77;3.47;;;28.80;65.00;;;;;;6276327;28;20511;-63
2023/07/05 10:31:56;;;;;;;4.40;3.20;;;28.90;65.80;;;;;;6275823;28;20227;-63
2023/07/05 10:35:03;;;;;;;3.80;3.40;;;29.00;65.30;;;;;;6276018;28;20582;-63
2023/07/05 10:38:19;;;;;;;3.17;2.90;;;29.20;65.30;;;;;;6275529;28;20235;-64
2023/07/05 10:41:35;;;;;;;3.50;3.10;;;29.10;64.60;;;;;;6275992;28;20691;-64
2023/07/05 10:44:40;;;;;;;4.00;3.60;;;29.10;65.80;;;;;;6275726;28;20227;-63
2023/07/05 10:47:47;;;;;;;5.17;3.50;;;28.80;66.40;;;;;;6275741;28;20227;-63
2023/07/05 10:50:53;;;;;;;4.30;3.90;;;28.80;68.30;;;;;;6275199;28;20773;-63
2023/07/05 10:54:03;;;;;;;4.40;3.53;;;28.60;70.40;;;;;;6275574;28;20273;-63
2023/07/05 10:57:19;;;;;;;3.90;3.57;;;29.00;70.10;;;;;;6274844;28;20595;-64
2023/07/05 11:00:29;;;;;;;5.10;3.60;;;29.50;66.70;;;;;;6275356;28;20539;-64
2023/07/05 11:03:45;;;;;;;4.10;3.80;;;29.60;65.30;;;;;;6276003;28;20230;-63
2023/07/05 11:06:51;;;;;;;4.47;3.77;;;29.60;65.00;;;;;;6275622;28;20231;-64
2023/07/05 11:09:58;;;;;;;5.40;3.30;;;29.40;65.20;;;;;;6275310;28;20231;-63
2023/07/05 11:13:01;;;;;;;4.10;3.80;;;29.30;66.30;;;;;;6275451;28;20260;-63
2023/07/05 11:16:08;;;;;;;3.80;3.50;;;29.50;66.80;;;;;;6275555;28;20229;-63
2023/07/05 11:19:17;;;;;;;5.53;3.80;;;29.70;65.20;;;;;;6265777;28;20235;-64
2023/07/05 11:22:40;;;;;;;4.70;3.70;;;30.00;65.30;;;;;;6275042;28;20322;-65
2023/07/05 11:26:02;;;;;;;3.70;3.40;;;30.40;62.90;;;;;;6274678;28;20573;-64
2023/07/05 11:29:44;;;;;;;5.88;3.83;;;30.60;61.20;;;;;;6275885;28;20658;-63
2023/07/05 11:33:20;;;;;;;3.45;3.15;;;30.90;62.20;;;;;;6272541;28;20238;-63
2023/07/05 11:36:32;;;;;;;3.88;3.17;;;31.40;60.40;;;;;;6267180;28;20219;-65
2023/07/05 11:39:40;;;;;;;6.00;3.53;;;31.50;59.40;;;;;;6258670;28;20313;-62
2023/07/05 11:42:45;;;;;;;4.15;3.53;;;31.30;59.10;;;;;;6268148;28;20493;-61
2023/07/05 11:45:48;;;;;;;3.90;3.28;;;31.10;60.10;;;;;;6265350;28;20223;-66
2023/07/05 11:48:52;;;;;;;5.22;3.70;;;30.90;61.00;;;;;;6249431;28;20231;-62
2023/07/05 11:51:59;;;;;;;4.47;3.95;;;30.90;60.20;;;;;;6249584;28;20721;-62
2023/07/05 11:55:07;;;;;;;3.90;3.60;;;30.90;60.00;;;;;;6264875;28;20226;-62
2023/07/05 11:58:18;;;;;;;3.25;2.95;;;31.00;59.60;;;;;;6274225;28;20302;-62
2023/07/05 12:01:27;;;;;;;3.78;3.40;;;30.80;60.00;;;;;;6274456;28;20231;-62
2023/07/05 12:04:32;;;;;;;3.95;3.40;;;30.80;60.40;;;;;;6274286;28;20238;-62
2023/07/05 12:07:36;;;;;;;4.22;3.83;;;30.90;59.40;;;;;;6274328;28;20227;-63
2023/07/05 12:10:44;;;;;;;4.22;3.83;;;30.70;59.50;;;;;;6270346;28;20231;-64
2023/07/05 12:13:49;;;;;;;4.68;4.05;;;30.50;59.80;;;;;;6249297;28;20238;-64
2023/07/05 12:16:53;;;;;;;4.85;4.40;;;30.70;60.50;;;;;;6249531;28;20228;-64
2023/07/05 12:19:57;;;;;;;4.63;3.90;;;30.90;59.70;;;;;;6249135;28;20231;-64
2023/07/05 12:23:01;;;;;;;4.38;3.92;;;31.20;59.60;;;;;;6244077;28;20235;-64
2023/07/05 12:26:27;;;;;;;4.47;4.13;;;31.30;59.00;;;;;;6249317;28;20234;-64
2023/07/05 12:29:32;;;;;;;4.05;3.75;;;31.40;58.00;;;;;;6263556;28;20690;-64
2023/07/05 12:32:37;;;;;;;4.65;4.25;;;31.60;58.00;;;;;;6255909;28;20316;-64
2023/07/05 12:35:41;;;;;;;5.18;4.03;;;31.50;58.20;;;;;;6273307;28;20231;-64
2023/07/05 12:38:48;;;;;;;4.32;3.92;;;31.40;58.20;;;;;;6273476;28;20250;-64
2023/07/05 12:42:03;;;;;;;4.40;4.00;;;31.40;58.20;;;;;;6273542;28;20227;-64
2023/07/05 12:45:11;;;;;;;5.28;4.30;;;31.30;59.30;;;;;;6272588;28;20211;-64
2023/07/05 12:48:16;;;;;;;4.75;4.22;;;31.30;58.50;;;;;;6273314;28;20219;-64
2023/07/05 12:51:21;;;;;;;3.80;3.30;;;31.30;59.20;;;;;;6274102;28;20226;-64
2023/07/05 12:54:25;;;;;;;4.22;3.83;;;31.00;59.00;;;;;;6278385;28;20260;-64
2023/07/05 12:57:33;;;;;;;4.50;4.10;;;30.80;57.40;;;;;;6278250;28;20241;-63
2023/07/05 13:00:40;;;;;;;6.70;4.10;;;30.90;57.60;;;;;;6278356;28;20238;-64
2023/07/05 13:03:45;;;;;;;5.07;4.68;;;31.20;58.00;;;;;;6278870;28;20229;-64
2023/07/05 13:06:55;;;;;;;5.93;4.35;;;31.30;58.50;;;;;;6279601;28;20392;-64
2023/07/05 13:10:02;;;;;;;9.20;4.80;;;31.00;58.70;;;;;;6278289;28;20265;-63
2023/07/05 13:13:25;;;;;;;4.32;3.92;;;30.80;59.10;;;;;;6277477;28;20230;-64
2023/07/05 13:16:32;;;;;;;4.85;4.35;;;30.80;59.40;;;;;;6277591;28;20276;-65
2023/07/05 13:19:43;;;;;;;4.70;4.30;;;30.80;59.40;;;;;;6278446;28;20242;-64
2023/07/05 13:22:50;;;;;;;6.43;4.78;;;30.70;59.70;;;;;;6270018;28;20329;-66
2023/07/05 13:25:56;;;;;;;6.13;4.63;;;30.40;60.20;;;;;;6257997;28;20415;-64
2023/07/05 13:29:00;;;;;;;5.32;4.82;;;30.30;59.30;;;;;;6277304;28;20238;-65
2023/07/05 13:32:06;;;;;;;7.72;4.05;;;29.80;59.40;;;;;;6277485;28;20639;-65
2023/07/05 13:35:09;;;;;;;5.30;4.80;;;29.80;59.90;;;;;;6277780;28;20235;-65
2023/07/05 13:38:13;;;;;;;4.80;4.38;;;30.10;59.80;;;;;;6277939;28;20235;-64
2023/07/05 13:41:25;;;;;;;4.53;4.13;;;30.30;59.20;;;;;;6277689;28;20223;-64
2023/07/05 13:44:29;;;;;;;5.53;5.10;;;30.60;59.20;;;;;;6276731;28;20235;-63
2023/07/05 13:47:33;;;;;;;6.38;4.82;;;30.60;59.30;;;;;;6277689;28;20230;-67
2023/07/05 13:50:36;;;;;;;4.72;4.32;;;30.70;59.00;;;;;;6276819;28;20269;-64
2023/07/05 14:02:28;;;;;;;5.63;4.18;;;30.30;61.80;;;;;;6086246;29;20558;-63
2023/07/05 14:05:33;;;;;;;3.88;3.25;;;30.20;60.00;;;;;;6134547;28;20230;-62
2023/07/05 14:08:36;;;;;;;4.43;4.03;;;29.80;67.60;;;;;;6176812;28;20256;-61
2023/07/05 14:11:41;;;;;;;4.23;3.80;;;29.20;67.70;;;;;;6181863;28;20226;-62
2023/07/05 14:14:45;;;;;;;8.53;4.17;;;29.10;69.00;;;;;;6183888;28;20230;-61
2023/07/05 14:17:48;;;;;;;5.00;3.63;;;28.80;70.00;;;;;;6182131;28;20288;-62
2023/07/05 14:20:52;;;;;;;7.10;5.43;;;28.50;70.60;;;;;;6176521;28;20559;-62
2023/07/05 14:23:56;;;;;;;6.77;5.23;;;28.50;68.20;;;;;;6176538;28;20323;-62
2023/07/05 14:27:00;;;;;;;5.97;5.47;;;28.00;72.00;;;;;;6176126;28;20272;-61
2023/07/05 14:30:03;;;;;;;6.13;5.20;;;27.20;76.70;;;;;;6168650;28;20229;-61
2023/07/05 14:33:06;;;;;;;8.80;4.43;;;26.50;83.20;;;;;;6175874;28;20250;-61
2023/07/05 14:36:13;;;;;;;6.47;4.77;;;24.40;88.00;;;;;;6176732;28;20199;-61
2023/07/05 14:39:16;;;;;;;5.43;4.60;;;23.70;93.50;;;;;;6251543;28;20267;-61
2023/07/05 14:42:19;;;;;;;5.30;4.80;;;23.40;95.30;;;;;;6251505;28;20282;-62
2023/07/05 14:45:26;;;;;;;5.93;4.47;;;23.00;97.90;;;;;;6259096;28;20700;-62
2023/07/05 14:48:29;;;;;;;8.10;5.90;;;23.20;99.90;;;;;;6275074;28;20271;-62
2023/07/05 14:51:34;;;;;;;9.97;5.90;;;23.30;99.90;;;;;;6276181;28;20246;-62
2023/07/05 14:54:37;;;;;;;4.83;4.33;;;23.40;99.90;;;;;;6275745;28;20310;-61
2023/07/05 14:57:41;;;;;;;4.60;4.13;;;23.50;99.90;;;;;;6275116;28;20235;-61
2023/07/05 15:00:45;;;;;;;4.10;3.70;;;23.60;99.90;;;;;;6275165;28;20346;-61
2023/07/05 15:03:50;;;;;;;5.30;4.77;;;23.50;99.90;;;;;;6275220;28;20220;-61
2023/07/05 15:06:55;;;;;;;6.80;5.23;;;23.60;99.90;;;;;;6275056;28;20229;-63
2023/07/05 15:09:58;;;;;;;7.03;5.20;;;23.80;99.90;;;;;;6275032;28;20520;-62
2023/07/05 15:13:01;;;;;;;3.87;3.50;;;24.00;99.90;;;;;;6275448;28;20230;-63
2023/07/05 15:16:05;;;;;;;5.53;4.20;;;24.10;99.90;;;;;;6274655;28;20687;-63
2023/07/05 15:19:08;;;;;;;6.90;5.00;;;24.50;99.90;;;;;;6275362;28;20230;-60
2023/07/05 15:22:13;;;;;;;6.60;4.60;;;24.90;99.90;;;;;;6274269;28;20265;-63
2023/07/05 15:25:18;;;;;;;5.73;4.30;;;25.30;99.90;;;;;;6275514;28;20226;-62
2023/07/05 15:28:21;;;;;;;5.97;4.73;;;25.70;99.90;;;;;;6273767;28;20258;-64
2023/07/05 15:31:25;;;;;;;5.37;4.17;;;26.10;99.90;;;;;;6273730;28;20226;-62
2023/07/05 15:34:28;;;;;;;3.60;3.30;;;26.40;99.90;;;;;;6259405;28;20326;-62
2023/07/05 15:37:33;;;;;;;4.60;3.53;;;26.60;99.90;;;;;;6250621;28;20231;-62
2023/07/05 15:40:37;;;;;;;6.13;4.23;;;26.90;99.90;;;;;;6250323;28;20231;-61
2023/07/05 15:43:41;;;;;;;3.73;3.43;;;27.10;99.90;;;;;;6249853;28;20241;-61
2023/07/05 15:46:44;;;;;;;6.47;4.20;;;27.40;99.90;;;;;;6250330;28;20239;-63
2023/07/05 15:49:47;;;;;;;4.17;3.60;;;27.60;99.90;;;;;;6250431;28;20250;-63
2023/07/05 15:52:52;;;;;;;3.67;3.37;;;27.70;99.90;;;;;;6250113;28;20357;-62
2023/07/05 15:55:56;;;;;;;6.80;3.77;;;27.90;99.90;;;;;;6249770;28;20322;-62
2023/07/05 15:59:04;;;;;;;4.23;3.83;;;28.00;99.40;;;;;;6249860;28;20313;-63
2023/07/05 16:02:14;;;;;;;6.93;3.77;;;28.10;99.40;;;;;;6249672;28;20312;-62
2023/07/05 16:05:17;;;;;;;4.03;3.53;;;28.20;98.60;;;;;;6249614;28;20710;-63
2023/07/05 16:08:22;;;;;;;4.00;3.70;;;28.20;98.10;;;;;;6249921;28;20393;-62
2023/07/05 16:11:27;;;;;;;3.83;3.40;;;28.10;97.90;;;;;;6249530;28;20241;-63
2023/07/05 16:14:31;;;;;;;4.40;4.00;;;28.10;98.60;;;;;;6249781;28;20282;-62
2023/07/05 16:17:35;;;;;;;4.23;3.83;;;28.00;99.20;;;;;;6249594;28;20235;-62
2023/07/05 16:20:39;;;;;;;4.77;4.20;;;28.00;99.20;;;;;;6249525;28;20322;-62